Portada
METAR-TAF:

METAR-TAF

Aeropuertos :

Base Aérea de Morón

Morón de la Frontera, España

latitud: 37-09N, longitud: 005-37W, altitud: 87 m

Observación

El informe se hizo hace 48 minutos, a las 01:00 UTC
Viento 4 kt del norte
Temperatura 7°C
Humedad 93%
Presión 1018 hPa
Visibilidad 10 km o más
Nubes dispersas a una altura de 5700 ft

METAR: LEMO 240100Z 01004KT 9999 SCT057 07/06 Q1018 NOSIG

Hora: 02:48 (01:48 UTC)

Pronóstico

El informe se hizo hace 2 horas y 48 minutos, a las 23:00 UTC
Pronóstico válido del 24 a las 00 UTC al 24 a las 09 UTC
Viento 5 kt del este
Visibilidad 10 km o más
Nubes dispersas a una altura de 2000 ft
Cielo nuboso a una altura de 4000 ft
Probabilidad 40% :
Temporalmente
del 24 a las 00 UTC al 24 a las 05 UTC
Visibilidad: 4000 m
Escasas nubes a una altura de 2000 ft, Cumulonimbus.
chaparrones de lluvia

TAF: LEMO 232300Z 2400/2409 10005KT 9999 SCT020 BKN040 PROB40 TEMPO 2400/2405 4000 SHRA FEW020CB

Observaciones y pronósticos meteorológicos de más de 4000 aeropuertos (mensajes METAR y TAF).

Los puntos amarillos y rojos representan las estaciones disponibles.

Ponga el ratón en el punto deseado para ver el nombre de la estación.

Haga clic para ver las observaciones y los pronósticos meteorológicos.

Para cambiar el mapa : haga clic en los botones verdes con una cruz de color negro para hacer un zoom, en el botón verde con un guión para alejar o en las flechas verdes para mapas adyacentes.


METAR-TAF: